Latest Weather Observations for West Roebuck

IDW60801

Issued at 4:33 pm WST Friday 20 October 2017 (issued every 30 minutes, with the page automatically refreshed every 10 minutes)

About weather observations | Map of weather stations | Latest weather observations for WA | Other Formats
Station Details ID: 003096 Name: WEST ROEBUCK Lat: -17.90 Lon: 122.31 Height: 32.0 m
Data from the previous 72 hours. | See also: Recent months at West Roebuck
Date/Time
WST
Temp
°C
App
Temp
°C
Dew
Point
°C
Rel
Hum
%
Delta-T
°C
Wind Press
QNH
hPa
Press
MSL
hPa
Rain since
9am
mm
Dir  Spd
km/h
Gust
km/h
Spd
kts
Gust
kts
20/04:30pm 35.1 - - - - SW 13 20 7 11 - - 0.0
20/04:00pm 37.4 - - - - WSW 17 24 9 13 - - 0.0
20/03:30pm 38.1 - - - - W 19 30 10 16 - - 0.0
20/03:00pm 38.7 - - - - W 17 26 9 14 - - 0.0
20/02:30pm 38.1 - - - - W 19 28 10 15 - - 0.0
20/02:00pm 38.4 - - - - W 20 32 11 17 - - 0.0
20/01:30pm 38.5 - - - - W 15 26 8 14 - - 0.0
20/01:00pm 39.1 - - - - WSW 13 24 7 13 - - 0.0
20/12:52pm 37.7 - - - - WSW 11 24 6 13 - - 0.0
20/12:30pm 43.0 - - - - N 17 30 9 16 - - 0.0
20/12:00pm 42.1 - - - - NNE 19 33 10 18 - - 0.0
20/11:30am 41.2 - - - - N 17 30 9 16 - - 0.0
20/11:00am 40.1 - - - - NE 15 30 8 16 - - 0.0
20/10:30am 37.7 - - - - ENE 17 24 9 13 - - 0.0
20/10:00am 37.0 - - - - ENE 17 30 9 16 - - 0.0
20/09:30am 35.7 - - - - ENE 17 24 9 13 - - 0.0
20/09:00am 35.0 - - - - ENE 13 20 7 11 - - 0.0
20/08:30am 33.5 - - - - E 11 20 6 11 - - 0.0
20/08:00am 31.6 - - - - ENE 11 19 6 10 - - 0.0
20/07:30am 29.2 - - - - NE 13 22 7 12 - - 0.0
20/07:00am 27.3 - - - - NE 13 20 7 11 - - 0.0
20/06:30am 27.0 - - - - ENE 11 19 6 10 - - 0.0
20/06:00am 25.9 - - - - ENE 11 17 6 9 - - 0.0
20/05:30am 25.3 - - - - ENE 9 15 5 8 - - 0.0
20/05:00am 25.2 - - - - ENE 15 20 8 11 - - 0.0
20/04:30am 23.6 - - - - E 9 11 5 6 - - 0.0
20/04:00am 24.0 - - - - ESE 9 11 5 6 - - 0.0
20/03:30am 24.9 - - - - E 9 11 5 6 - - 0.0
20/03:00am 25.9 - - - - ESE 9 13 5 7 - - 0.0
20/02:30am 27.4 - - - - ESE 11 13 6 7 - - 0.0
20/02:00am 28.3 - - - - SE 11 13 6 7 - - 0.0
20/01:30am 30.5 - - - - ESE 9 13 5 7 - - 0.0
20/01:00am 32.6 - - - - SSE 15 24 8 13 - - 0.0
20/12:30am 29.3 - - - - SSE 9 13 5 7 - - 0.0
20/12:00am 28.8 - - - - SSW 7 9 4 5 - - 0.0
 
Date/Time
WST
Temp
°C
App
Temp
°C
Dew
Point
°C
Rel
Hum
%
Delta-T
°C
Wind Press
QNH
hPa
Press
MSL
hPa
Rain since
9am
mm
Dir  Spd
km/h
Gust
km/h
Spd
kts
Gust
kts
19/11:30pm 28.3 - - - - CALM 0 0 0 0 - - 0.0
19/11:00pm 29.0 - - - - WNW 2 6 1 3 - - 0.0
19/10:30pm 29.8 - - - - WSW 4 7 2 4 - - 0.0
19/10:00pm 30.7 - - - - WNW 7 9 4 5 - - 0.0
19/09:30pm 31.2 - - - - W 7 11 4 6 - - 0.0
19/09:00pm 32.1 - - - - SW 11 19 6 10 - - 0.0
19/08:30pm 32.6 - - - - SW 9 20 5 11 - - 0.0
19/08:00pm 33.4 - - - - SW 13 20 7 11 - - 0.0
19/07:30pm 33.8 - - - - SW 19 30 10 16 - - 0.0
19/07:00pm 33.5 - - - - NNE 7 17 4 9 - - 0.0
19/06:30pm 34.6 - - - - SW 17 26 9 14 - - 0.0
19/06:00pm 34.8 - - - - SW 17 24 9 13 - - 0.0
19/05:30pm 36.1 - - - - SW 15 28 8 15 - - 0.0
19/05:00pm 37.3 - - - - SW 17 24 9 13 - - 0.0
19/04:30pm 38.4 - - - - SW 17 26 9 14 - - 0.0
19/04:00pm 39.8 - - - - WSW 17 24 9 13 - - 0.0
19/03:30pm 39.9 - - - - WSW 20 28 11 15 - - 0.0
19/03:00pm 41.1 - - - - WSW 17 28 9 15 - - 0.0
19/02:30pm 40.7 - - - - WSW 19 30 10 16 - - 0.0
19/02:00pm 42.7 - - - - WSW 20 32 11 17 - - 0.0
19/01:30pm 43.0 - - - - SSW 19 30 10 16 - - 0.0
19/01:00pm 43.5 - - - - S 19 28 10 15 - - 0.0
19/12:30pm 43.1 - - - - S 20 33 11 18 - - 0.0
19/12:00pm 42.8 - - - - S 22 32 12 17 - - 0.0
19/11:30am 43.1 - - - - SSE 22 44 12 24 - - 0.0
19/11:00am 43.0 - - - - SE 19 30 10 16 - - 0.0
19/10:30am 41.5 - - - - ESE 20 33 11 18 - - 0.0
19/10:00am 41.2 - - - - ESE 19 32 10 17 - - 0.0
19/09:30am 39.9 - - - - ESE 19 32 10 17 - - 0.0
19/09:00am 37.8 - - - - SE 17 28 9 15 - - -
19/08:30am 35.5 - - - - SE 20 33 11 18 - - -
19/08:00am 32.8 - - - - SE 17 30 9 16 - - -
19/07:30am 31.6 - - - - SE 19 28 10 15 - - -
19/07:00am 30.7 - - - - SSE 15 26 8 14 - - -
19/06:30am 28.6 - - - - S 9 13 5 7 - - -
19/06:00am 27.1 - - - - S 11 20 6 11 - - -
19/05:30am 24.8 - - - - SSW 9 20 5 11 - - -
19/05:00am 23.2 - - - - SW 9 11 5 6 - - -
19/04:30am 23.5 - - - - SW 9 11 5 6 - - -
19/04:00am 23.6 - - - - SW 9 9 5 5 - - -
19/03:30am 23.8 - - - - SW 9 13 5 7 - - -
19/03:00am 23.8 - - - - WSW 7 9 4 5 - - 0.0
19/02:30am 24.7 - - - - SW 7 9 4 5 - - -
19/02:00am 25.7 - - - - SW 9 13 5 7 - - -
19/01:30am 25.8 - - - - SW 13 20 7 11 - - -
19/01:00am 24.3 - - - - SW 9 13 5 7 - - -
19/12:30am 23.7 - - - - WSW 9 9 5 5 - - -
19/12:00am 24.7 - - - - SW 9 11 5 6 - - -
 
Date/Time
WST
Temp
°C
App
Temp
°C
Dew
Point
°C
Rel
Hum
%
Delta-T
°C
Wind Press
QNH
hPa
Press
MSL
hPa
Rain since
9am
mm
Dir  Spd
km/h
Gust
km/h
Spd
kts
Gust
kts
18/11:30pm 24.8 - - - - WSW 11 17 6 9 - - -
18/11:00pm 24.9 - - - - WSW 9 13 5 7 - - -
18/10:30pm 25.2 - - - - SW 9 13 5 7 - - -
18/10:00pm 24.8 - - - - SW 9 13 5 7 - - -
18/09:30pm 25.0 - - - - WSW 9 13 5 7 - - -
18/09:00pm 25.2 - - - - SW 9 13 5 7 - - -
18/08:30pm 25.2 - - - - WSW 9 11 5 6 - - -
18/08:00pm 25.9 - - - - W 9 13 5 7 - - -
18/07:30pm 26.1 - - - - - - - - - - - -
18/07:00pm 26.5 - - - - W 9 13 5 7 - - -
18/06:30pm 26.8 - - - - WNW 11 15 6 8 - - -
18/06:00pm 27.3 - - - - WNW 13 19 7 10 - - -
18/05:30pm 28.1 - - - - WNW 15 22 8 12 - - -
18/05:00pm 29.6 - - - - WNW 15 22 8 12 - - -
18/04:30pm 30.5 - - - - W 17 24 9 13 - - -
18/04:00pm 31.8 - - - - W 17 28 9 15 - - 0.0
18/03:30pm 32.2 - - - - W 20 30 11 16 - - 0.0
18/03:00pm 32.1 - - - - WSW 22 32 12 17 - - 0.0
18/02:30pm 32.6 - - - - W 20 32 11 17 - - 0.0
18/02:00pm 34.1 - - - - W 20 30 11 16 - - 0.0
18/01:30pm 34.5 - - - - W 19 28 10 15 - - 0.0
18/01:00pm 34.8 - - - - W 19 28 10 15 - - 0.0
18/12:30pm 34.8 - - - - W 17 26 9 14 - - 0.0
18/12:00pm 35.3 - - - - W 13 20 7 11 - - 0.0
18/11:30am 35.2 - - - - W 13 20 7 11 - - 0.0
18/11:00am 34.2 - - - - SW 13 22 7 12 - - 0.0
18/10:30am 34.2 - - - - WSW 15 24 8 13 - - 0.0
18/10:00am 33.1 - - - - SSW 13 20 7 11 - - 0.0
18/09:30am 31.9 - - - - SW 15 24 8 13 - - 0.0
18/09:00am 30.7 - - - - SW 17 24 9 13 - - 0.0
18/08:30am 29.9 - - - - SSW 19 30 10 16 - - 0.0
18/08:00am 29.9 - - - - SSW 15 22 8 12 - - 0.0
18/07:30am 29.0 - - - - SW 19 26 10 14 - - 0.0
18/07:00am 28.0 - - - - SSW 15 24 8 13 - - 0.0
18/06:30am 26.7 - - - - SW 11 15 6 8 - - 0.0
18/06:00am 24.9 - - - - SW 9 13 5 7 - - 0.0
18/05:30am 24.2 - - - - SW 7 11 4 6 - - 0.0
18/05:00am 24.4 - - - - SW 7 11 4 6 - - 0.0
18/04:30am 24.7 - - - - SW 9 13 5 7 - - 0.0
18/04:00am 24.8 - - - - SW 9 13 5 7 - - 0.0
18/03:30am 24.7 - - - - SW 9 13 5 7 - - 0.0
18/03:00am 24.6 - - - - WSW 9 13 5 7 - - 0.0
18/02:30am 24.7 - - - - WSW 9 17 5 9 - - 0.0
18/02:00am 24.8 - - - - WSW 11 17 6 9 - - 0.0
18/01:30am 24.3 - - - - WSW 11 13 6 7 - - 0.0
18/01:00am 24.4 - - - - WSW 9 13 5 7 - - 0.0
18/12:30am 24.8 - - - - WSW 9 11 5 6 - - 0.0
18/12:00am 25.4 - - - - WSW 9 17 5 9 - - 0.0
 
Date/Time
WST
Temp
°C
App
Temp
°C
Dew
Point
°C
Rel
Hum
%
Delta-T
°C
Wind Press
QNH
hPa
Press
MSL
hPa
Rain since
9am
mm
Dir  Spd
km/h
Gust
km/h
Spd
kts
Gust
kts
17/11:30pm 25.4 - - - - WSW 11 17 6 9 - - 0.0
17/11:00pm 25.3 - - - - W 9 13 5 7 - - 0.0
17/10:30pm 25.6 - - - - WNW 9 13 5 7 - - 0.0
17/10:00pm 25.8 - - - - WSW 9 15 5 8 - - 0.0
17/09:30pm 26.0 - - - - W 13 20 7 11 - - 0.0
17/09:00pm 26.1 - - - - W 11 15 6 8 - - 0.0
17/08:30pm 26.1 - - - - W 13 20 7 11 - - 0.0
17/08:00pm 26.1 - - - - W 11 17 6 9 - - 0.0
17/07:30pm 26.4 - - - - W 13 19 7 10 - - 0.0
17/07:00pm 26.7 - - - - W 13 20 7 11 - - 0.0
17/06:30pm 26.9 - - - - WSW 13 20 7 11 - - 0.0
17/06:00pm 27.2 - - - - W 13 20 7 11 - - 0.0
17/05:30pm 27.8 - - - - W 17 28 9 15 - - 0.0
17/05:00pm 28.5 - - - - W 17 28 9 15 - - 0.0

Other Formats:

Comma delimited format used in spreadsheet applications
http://www.bom.gov.au/fwo/IDW60801/IDW60801.95204.axf

JavaScript Object Notation format (JSON) in row-major order
http://www.bom.gov.au/fwo/IDW60801/IDW60801.95204.json